createdAt,value
2019-01-25T00:00:22.120Z,17.76
2019-01-25T00:01:21.818Z,17.74
2019-01-25T00:02:21.810Z,17.73
2019-01-25T00:03:21.829Z,17.73
2019-01-25T00:04:21.797Z,17.7
2019-01-25T00:05:22.014Z,17.71
2019-01-25T00:06:21.650Z,17.71
2019-01-25T00:07:21.550Z,17.71
2019-01-25T00:08:22.113Z,17.68
2019-01-25T00:09:21.773Z,17.7
2019-01-25T00:10:21.833Z,17.7
2019-01-25T00:11:21.775Z,17.67
2019-01-25T00:12:21.901Z,17.67
2019-01-25T00:13:21.804Z,17.67
2019-01-25T00:14:22.148Z,17.66
2019-01-25T00:15:22.227Z,17.66
2019-01-25T00:16:21.754Z,17.66
2019-01-25T00:17:21.790Z,17.64
2019-01-25T00:18:21.788Z,17.64
2019-01-25T00:19:21.905Z,17.63
2019-01-25T00:20:22.114Z,17.64
2019-01-25T00:21:21.914Z,17.63
2019-01-25T00:22:22.622Z,17.61
2019-01-25T00:23:22.043Z,17.61
2019-01-25T00:24:21.864Z,17.6
2019-01-25T00:25:21.706Z,17.6
2019-01-25T00:26:21.973Z,17.61
2019-01-25T00:27:21.801Z,17.6
2019-01-25T00:28:21.932Z,17.57
2019-01-25T00:29:22.391Z,17.59
2019-01-25T00:30:22.214Z,17.57
2019-01-25T00:31:22.201Z,17.56
2019-01-25T00:32:22.311Z,17.57
2019-01-25T00:33:23.645Z,17.56
2019-01-25T00:34:21.901Z,17.56
2019-01-25T00:35:21.952Z,17.56
2019-01-25T00:36:23.321Z,17.56
2019-01-25T00:37:21.914Z,17.54
2019-01-25T00:38:21.964Z,17.5
2019-01-25T00:39:22.057Z,17.52
2019-01-25T00:40:22.339Z,17.54
2019-01-25T00:41:22.168Z,17.52
2019-01-25T00:42:21.688Z,17.53
2019-01-25T00:43:22.254Z,17.49
2019-01-25T00:44:22.098Z,17.5
2019-01-25T00:45:21.644Z,17.5
2019-01-25T00:46:21.992Z,17.49
2019-01-25T00:47:22.420Z,17.5
2019-01-25T00:48:22.427Z,17.5
2019-01-25T00:49:23.652Z,17.48
2019-01-25T00:50:23.747Z,17.49
2019-01-25T00:51:21.834Z,17.46
2019-01-25T00:52:21.742Z,17.48
2019-01-25T00:53:21.701Z,17.46
2019-01-25T00:54:22.390Z,17.46
2019-01-25T00:55:22.071Z,17.45
2019-01-25T00:56:21.899Z,17.45
2019-01-25T00:57:21.983Z,17.43
2019-01-25T00:58:21.607Z,17.46
2019-01-25T00:59:22.076Z,17.43
2019-01-25T01:00:22.026Z,17.43
2019-01-25T01:01:21.686Z,17.45
2019-01-25T01:02:22.238Z,17.42
2019-01-25T01:03:21.497Z,17.42
2019-01-25T01:04:22.924Z,17.39
2019-01-25T01:05:22.023Z,17.42
2019-01-25T01:06:21.781Z,17.4
2019-01-25T01:07:22.015Z,17.39
2019-01-25T01:08:21.886Z,17.4
2019-01-25T01:09:21.793Z,17.38
2019-01-25T01:10:21.993Z,17.39
2019-01-25T01:11:21.587Z,17.39
2019-01-25T01:12:22.328Z,17.39
2019-01-25T01:13:21.696Z,17.4
2019-01-25T01:14:21.599Z,17.38
2019-01-25T01:15:22.004Z,17.39
2019-01-25T01:16:21.738Z,17.36
2019-01-25T01:17:21.490Z,17.35
2019-01-25T01:18:21.731Z,17.35
2019-01-25T01:19:22.418Z,17.36
2019-01-25T01:20:22.032Z,17.38
2019-01-25T01:21:21.838Z,17.35
2019-01-25T01:22:22.057Z,17.32
2019-01-25T01:23:22.014Z,17.36
2019-01-25T01:24:21.786Z,17.36
2019-01-25T01:25:22.349Z,17.33
2019-01-25T01:26:21.836Z,17.33
2019-01-25T01:27:21.950Z,17.31
2019-01-25T01:28:21.717Z,17.32
2019-01-25T01:29:22.006Z,17.32
2019-01-25T01:30:21.804Z,17.31
2019-01-25T01:31:21.679Z,17.32
2019-01-25T01:32:22.001Z,17.28
2019-01-25T01:33:21.902Z,17.26
2019-01-25T01:34:22.131Z,17.26
2019-01-25T01:35:21.821Z,17.29
2019-01-25T01:36:21.920Z,17.29
2019-01-25T01:37:21.876Z,17.28
2019-01-25T01:38:22.664Z,17.29
2019-01-25T01:39:22.064Z,17.28
2019-01-25T01:40:23.013Z,17.26
2019-01-25T01:41:21.777Z,17.26
2019-01-25T01:42:22.176Z,17.25
2019-01-25T01:43:21.759Z,17.25
2019-01-25T01:44:21.743Z,17.22
2019-01-25T01:45:21.816Z,17.23
2019-01-25T01:46:21.854Z,17.22
2019-01-25T01:47:21.728Z,17.22
2019-01-25T01:48:21.742Z,17.21
2019-01-25T01:49:22.072Z,17.21
2019-01-25T01:50:21.715Z,17.22
2019-01-25T01:51:22.013Z,17.21
2019-01-25T01:52:21.953Z,17.19
2019-01-25T01:53:21.713Z,17.21
2019-01-25T01:54:21.776Z,17.19
2019-01-25T01:55:21.889Z,17.22
2019-01-25T01:56:21.603Z,17.18
2019-01-25T01:57:21.726Z,17.19
2019-01-25T01:58:21.469Z,17.16
2019-01-25T01:59:21.706Z,17.19
2019-01-25T02:00:21.753Z,17.18
2019-01-25T02:01:21.754Z,17.19
2019-01-25T02:02:21.835Z,17.19
2019-01-25T02:03:21.840Z,17.19
2019-01-25T02:04:21.691Z,17.15
2019-01-25T02:05:21.704Z,17.15
2019-01-25T02:06:22.170Z,17.15
2019-01-25T02:07:21.957Z,17.15
2019-01-25T02:08:21.715Z,17.18
2019-01-25T02:09:21.951Z,17.12
2019-01-25T02:10:30.048Z,17.16
2019-01-25T02:11:21.762Z,17.15
2019-01-25T02:12:23.937Z,17.14
2019-01-25T02:13:22.121Z,17.15
2019-01-25T02:14:21.763Z,17.15
2019-01-25T02:15:21.890Z,17.14
2019-01-25T02:16:21.713Z,17.09
2019-01-25T02:17:21.664Z,17.12
2019-01-25T02:18:22.177Z,17.11
2019-01-25T02:19:21.691Z,17.09
2019-01-25T02:20:22.154Z,17.11
2019-01-25T02:21:24.716Z,17.11
2019-01-25T02:22:21.981Z,17.08
2019-01-25T02:23:22.075Z,17.09
2019-01-25T02:24:21.594Z,17.11
2019-01-25T02:25:21.605Z,17.11
2019-01-25T02:26:21.713Z,17.08
2019-01-25T02:27:22.221Z,17.06
2019-01-25T02:28:21.897Z,17.06
2019-01-25T02:29:22.111Z,17.09
2019-01-25T02:30:21.478Z,17.09
2019-01-25T02:31:21.932Z,17.06
2019-01-25T02:32:21.615Z,17.06
2019-01-25T02:33:23.624Z,17.06
2019-01-25T02:34:21.777Z,17.06
2019-01-25T02:35:21.736Z,17.05
2019-01-25T02:36:21.899Z,17.05
2019-01-25T02:37:21.708Z,17.05
2019-01-25T02:38:21.987Z,17.05
2019-01-25T02:39:21.802Z,17.04
2019-01-25T02:40:22.162Z,17.02
2019-01-25T02:41:22.045Z,17.02
2019-01-25T02:42:22.732Z,17.01
2019-01-25T02:43:21.645Z,17.02
2019-01-25T02:44:21.785Z,17.01
2019-01-25T02:45:21.519Z,17.02
2019-01-25T02:46:21.632Z,17.01
2019-01-25T02:47:21.907Z,17.02
2019-01-25T02:48:21.836Z,17.01
2019-01-25T02:49:21.812Z,17.02
2019-01-25T02:50:21.737Z,16.99
2019-01-25T02:51:21.643Z,17.01
2019-01-25T02:52:21.907Z,17.01
2019-01-25T02:53:21.738Z,16.99
2019-01-25T02:54:21.648Z,16.99
2019-01-25T02:55:22.333Z,16.99
2019-01-25T02:56:21.953Z,16.99
2019-01-25T02:57:21.789Z,16.99
2019-01-25T02:58:21.943Z,16.99
2019-01-25T02:59:21.862Z,16.95
2019-01-25T03:00:21.769Z,16.97
2019-01-25T03:01:22.399Z,16.98
2019-01-25T03:02:21.664Z,16.95
2019-01-25T03:03:22.019Z,16.98
2019-01-25T03:04:21.996Z,16.95
2019-01-25T03:05:24.103Z,16.94
2019-01-25T03:06:22.073Z,16.95
2019-01-25T03:07:21.795Z,16.95
2019-01-25T03:08:22.114Z,16.91
2019-01-25T03:09:23.442Z,16.92
2019-01-25T03:10:29.801Z,16.94
2019-01-25T03:11:22.347Z,16.92
2019-01-25T03:12:21.630Z,16.92
2019-01-25T03:13:21.822Z,16.92
2019-01-25T03:14:21.666Z,16.92
2019-01-25T03:15:22.096Z,16.91
2019-01-25T03:16:22.002Z,16.91
2019-01-25T03:17:21.665Z,16.92
2019-01-25T03:18:21.659Z,16.91
2019-01-25T03:19:21.520Z,16.91
2019-01-25T03:20:21.803Z,16.88
2019-01-25T03:21:21.919Z,16.9
2019-01-25T03:22:22.076Z,16.9
2019-01-25T03:23:22.010Z,16.87
2019-01-25T03:24:22.020Z,16.9
2019-01-25T03:25:21.952Z,16.9
2019-01-25T03:26:22.132Z,16.88
2019-01-25T03:27:21.973Z,16.88
2019-01-25T03:28:22.053Z,16.88
2019-01-25T03:29:21.441Z,16.88
2019-01-25T03:30:21.521Z,16.87
2019-01-25T03:31:21.675Z,16.86
2019-01-25T03:32:21.795Z,16.84
2019-01-25T03:33:22.188Z,16.86
2019-01-25T03:34:23.731Z,16.87
2019-01-25T03:35:21.943Z,16.87
2019-01-25T03:36:21.740Z,16.87
2019-01-25T03:37:21.833Z,16.87
2019-01-25T03:38:21.517Z,16.86
2019-01-25T03:39:21.855Z,16.84
2019-01-25T03:40:22.059Z,16.84
2019-01-25T03:41:21.673Z,16.86
2019-01-25T03:42:22.142Z,16.83
2019-01-25T03:43:24.077Z,16.84
2019-01-25T03:44:21.796Z,16.83
2019-01-25T03:45:21.827Z,16.83
2019-01-25T03:46:21.683Z,16.84
2019-01-25T03:47:21.805Z,16.83
2019-01-25T03:48:21.717Z,16.81
2019-01-25T03:49:21.779Z,16.81
2019-01-25T03:50:21.693Z,16.8
2019-01-25T03:51:22.060Z,16.8
2019-01-25T03:52:23.569Z,16.81
2019-01-25T03:53:21.732Z,16.81
2019-01-25T03:54:21.995Z,16.81
2019-01-25T03:55:21.800Z,16.8
2019-01-25T03:56:21.462Z,16.8
2019-01-25T03:57:21.824Z,16.78
2019-01-25T03:58:22.027Z,16.78
2019-01-25T03:59:21.880Z,16.77
2019-01-25T04:00:21.771Z,16.8
2019-01-25T04:01:21.921Z,16.78
2019-01-25T04:02:21.706Z,16.77
2019-01-25T04:03:21.905Z,16.77
2019-01-25T04:04:21.822Z,16.78
2019-01-25T04:05:21.803Z,16.77
2019-01-25T04:06:21.492Z,16.78
2019-01-25T04:07:21.712Z,16.76
2019-01-25T04:08:21.830Z,16.77
2019-01-25T04:09:22.825Z,16.76
2019-01-25T04:10:21.853Z,16.76
2019-01-25T04:11:22.138Z,16.76
2019-01-25T04:12:21.697Z,16.76
2019-01-25T04:13:21.486Z,16.71
2019-01-25T04:14:21.716Z,16.74
2019-01-25T04:15:21.663Z,16.76
2019-01-25T04:16:24.829Z,16.74
2019-01-25T04:17:21.713Z,16.74
2019-01-25T04:18:22.166Z,16.73
2019-01-25T04:19:21.904Z,16.73
2019-01-25T04:20:21.750Z,16.74
2019-01-25T04:21:21.769Z,16.71
2019-01-25T04:22:21.733Z,16.71
2019-01-25T04:23:21.939Z,16.7
2019-01-25T04:24:21.885Z,16.7
2019-01-25T04:25:23.036Z,16.73
2019-01-25T04:26:22.042Z,16.71
2019-01-25T04:27:22.041Z,16.71
2019-01-25T04:28:21.935Z,16.71
2019-01-25T04:29:22.000Z,16.7
2019-01-25T04:30:22.151Z,16.67
2019-01-25T04:31:21.709Z,16.69
2019-01-25T04:32:21.729Z,16.7
2019-01-25T04:33:21.922Z,16.7
2019-01-25T04:34:21.616Z,16.7
2019-01-25T04:35:21.855Z,16.69
2019-01-25T04:36:21.691Z,16.7
2019-01-25T04:37:21.493Z,16.67
2019-01-25T04:38:21.551Z,16.67
2019-01-25T04:39:22.715Z,16.7
2019-01-25T04:40:21.599Z,16.69
2019-01-25T04:41:22.207Z,16.69
2019-01-25T04:42:21.747Z,16.69
2019-01-25T04:43:21.978Z,16.66
2019-01-25T04:44:21.562Z,16.71
2019-01-25T04:45:21.696Z,16.7
2019-01-25T04:46:21.493Z,16.7
2019-01-25T04:47:21.727Z,16.7
2019-01-25T04:48:21.483Z,16.73
2019-01-25T04:49:22.136Z,16.71
2019-01-25T04:50:21.679Z,16.71
2019-01-25T04:51:21.942Z,16.71
2019-01-25T04:52:21.669Z,16.71
2019-01-25T04:53:21.550Z,16.74
2019-01-25T04:54:21.619Z,16.76
2019-01-25T04:55:21.692Z,16.76
2019-01-25T04:56:21.962Z,16.77
2019-01-25T04:57:21.666Z,16.77
2019-01-25T04:58:21.770Z,16.78
2019-01-25T04:59:22.073Z,16.83
2019-01-25T05:00:21.904Z,16.83
2019-01-25T05:01:22.005Z,16.86
2019-01-25T05:02:21.599Z,16.87
2019-01-25T05:03:21.885Z,16.86
2019-01-25T05:04:21.811Z,16.91
2019-01-25T05:05:21.539Z,16.9
2019-01-25T05:06:21.923Z,16.94
2019-01-25T05:07:21.726Z,16.94
2019-01-25T05:08:23.406Z,16.98
2019-01-25T05:09:21.879Z,16.99
2019-01-25T05:10:21.445Z,17.02
2019-01-25T05:11:21.712Z,17.05
2019-01-25T05:12:22.486Z,17.08
2019-01-25T05:13:21.986Z,17.08
2019-01-25T05:14:21.462Z,17.11
2019-01-25T05:15:21.769Z,17.12
2019-01-25T05:16:21.893Z,17.15
2019-01-25T05:17:21.690Z,17.16
2019-01-25T05:18:22.275Z,17.18
2019-01-25T05:19:21.925Z,17.18
2019-01-25T05:20:21.535Z,17.21
2019-01-25T05:21:21.527Z,17.23
2019-01-25T05:22:21.879Z,17.23
2019-01-25T05:23:21.603Z,17.26
2019-01-25T05:24:21.751Z,17.28
2019-01-25T05:25:23.482Z,17.31
2019-01-25T05:26:21.872Z,17.29
2019-01-25T05:27:22.205Z,17.33
2019-01-25T05:28:21.771Z,17.33
2019-01-25T05:29:21.521Z,17.38
2019-01-25T05:30:21.492Z,17.38
2019-01-25T05:31:21.973Z,17.38
2019-01-25T05:32:22.007Z,17.4
2019-01-25T05:33:22.243Z,17.43
2019-01-25T05:34:21.483Z,17.43
2019-01-25T05:35:21.642Z,17.48
2019-01-25T05:36:22.714Z,17.48
2019-01-25T05:37:21.949Z,17.49
2019-01-25T05:38:21.903Z,17.5
2019-01-25T05:39:21.717Z,17.5
2019-01-25T05:40:22.591Z,17.53
2019-01-25T05:41:29.083Z,17.53
2019-01-25T05:42:21.976Z,17.54
2019-01-25T05:43:21.896Z,17.56
2019-01-25T05:44:21.433Z,17.57
2019-01-25T05:45:21.849Z,17.6
2019-01-25T05:46:21.989Z,17.61
2019-01-25T05:47:21.418Z,17.63
2019-01-25T05:48:21.529Z,17.66
2019-01-25T05:49:21.781Z,17.64
2019-01-25T05:50:22.034Z,17.67
2019-01-25T05:51:21.919Z,17.68
2019-01-25T05:52:21.659Z,17.68
2019-01-25T05:53:24.895Z,17.7
2019-01-25T05:54:22.037Z,17.71
2019-01-25T05:55:21.792Z,17.73
2019-01-25T05:56:21.983Z,17.73
2019-01-25T05:57:21.544Z,17.74
2019-01-25T05:58:21.693Z,17.76
2019-01-25T05:59:21.775Z,17.77
2019-01-25T06:00:21.783Z,17.8
2019-01-25T06:01:21.902Z,17.8
2019-01-25T06:02:24.908Z,17.81
2019-01-25T06:03:21.602Z,17.82
2019-01-25T06:04:21.719Z,17.84
2019-01-25T06:05:21.550Z,17.85
2019-01-25T06:06:21.529Z,17.85
2019-01-25T06:07:21.706Z,17.87
2019-01-25T06:08:21.447Z,17.85
2019-01-25T06:09:21.888Z,17.88
2019-01-25T06:10:21.995Z,17.91
2019-01-25T06:11:24.631Z,17.93
2019-01-25T06:12:22.604Z,17.93
2019-01-25T06:13:21.662Z,17.95
2019-01-25T06:14:21.441Z,17.95
2019-01-25T06:15:21.896Z,17.97
2019-01-25T06:16:22.247Z,17.95
2019-01-25T06:17:21.510Z,17.98
2019-01-25T06:18:21.921Z,18
2019-01-25T06:19:22.141Z,17.98
2019-01-25T06:20:25.503Z,18.02
2019-01-25T06:21:21.915Z,18.02
2019-01-25T06:22:22.063Z,18.02
2019-01-25T06:23:21.507Z,18.04
2019-01-25T06:24:21.413Z,18.04
2019-01-25T06:25:22.151Z,18.05
2019-01-25T06:26:21.742Z,18.05
2019-01-25T06:27:22.305Z,18.08
2019-01-25T06:28:21.771Z,18.09
2019-01-25T06:29:22.707Z,18.11
2019-01-25T06:30:21.770Z,18.11
2019-01-25T06:31:21.809Z,18.13
2019-01-25T06:32:21.743Z,18.12
2019-01-25T06:33:21.773Z,18.13
2019-01-25T06:34:21.670Z,18.13
2019-01-25T06:35:21.708Z,18.18
2019-01-25T06:36:21.864Z,18.15
2019-01-25T06:37:21.667Z,18.18
2019-01-25T06:38:21.781Z,18.21
2019-01-25T06:39:21.404Z,18.21
2019-01-25T06:40:21.799Z,18.22
2019-01-25T06:41:21.751Z,18.23
2019-01-25T06:42:21.924Z,18.22
2019-01-25T06:43:22.098Z,18.28
2019-01-25T06:44:22.067Z,18.29
2019-01-25T06:45:21.380Z,18.32
2019-01-25T06:46:21.542Z,18.33
2019-01-25T06:47:21.560Z,18.35
2019-01-25T06:48:21.421Z,18.35
2019-01-25T06:49:23.435Z,18.4
2019-01-25T06:50:22.379Z,18.41
2019-01-25T06:51:21.814Z,18.41
2019-01-25T06:52:21.535Z,18.44
2019-01-25T06:53:21.547Z,18.46
2019-01-25T06:54:21.682Z,18.47
2019-01-25T06:55:21.902Z,18.5
2019-01-25T06:56:21.753Z,18.5
2019-01-25T06:57:21.695Z,18.54
2019-01-25T06:58:21.811Z,18.54
2019-01-25T06:59:22.011Z,18.54
2019-01-25T07:00:21.776Z,18.57
2019-01-25T07:01:21.931Z,18.58
2019-01-25T07:02:21.914Z,18.58
2019-01-25T07:03:21.983Z,18.62
2019-01-25T07:04:21.697Z,18.62
2019-01-25T07:05:21.948Z,18.63
2019-01-25T07:06:21.771Z,18.66
2019-01-25T07:07:21.865Z,18.64
2019-01-25T07:08:21.816Z,18.66
2019-01-25T07:09:21.654Z,18.66
2019-01-25T07:10:21.894Z,18.64
2019-01-25T07:11:21.776Z,18.63
2019-01-25T07:12:21.441Z,18.64
2019-01-25T07:13:21.919Z,18.64
2019-01-25T07:14:21.976Z,18.66
2019-01-25T07:15:21.934Z,18.63
2019-01-25T07:16:21.826Z,18.64
2019-01-25T07:17:21.430Z,18.63
2019-01-25T07:18:21.666Z,18.63
2019-01-25T07:19:21.487Z,18.63
2019-01-25T07:20:21.648Z,18.62
2019-01-25T07:21:22.071Z,18.63
2019-01-25T07:22:21.964Z,18.63
2019-01-25T07:23:21.462Z,18.64
2019-01-25T07:24:21.646Z,18.67
2019-01-25T07:25:22.053Z,18.66
2019-01-25T07:26:22.104Z,18.67
2019-01-25T07:27:21.566Z,18.66
2019-01-25T07:28:22.099Z,18.66
2019-01-25T07:29:22.223Z,18.67
2019-01-25T07:30:22.617Z,18.67
2019-01-25T07:31:22.123Z,18.68
2019-01-25T07:32:21.791Z,18.71
2019-01-25T07:33:22.833Z,18.68
2019-01-25T07:34:21.762Z,18.7
2019-01-25T07:35:22.166Z,18.71
2019-01-25T07:36:21.618Z,18.67
2019-01-25T07:37:21.818Z,18.7
2019-01-25T07:38:21.592Z,18.7
2019-01-25T07:39:22.982Z,18.71
2019-01-25T07:40:22.094Z,18.74
2019-01-25T07:41:21.818Z,18.73
2019-01-25T07:42:22.097Z,18.73
2019-01-25T07:43:22.106Z,18.73
2019-01-25T07:44:22.103Z,18.74
2019-01-25T07:45:22.154Z,18.74
2019-01-25T07:46:21.860Z,18.74
2019-01-25T07:47:21.615Z,18.77
2019-01-25T07:48:22.121Z,18.75
2019-01-25T07:49:21.811Z,18.77
2019-01-25T07:50:21.640Z,18.75
2019-01-25T07:51:21.744Z,18.74
2019-01-25T07:52:21.850Z,18.77
2019-01-25T07:53:22.899Z,18.74
2019-01-25T07:54:22.120Z,18.74
2019-01-25T07:55:21.731Z,18.78
2019-01-25T07:56:22.703Z,18.77
2019-01-25T07:57:21.988Z,18.78
2019-01-25T07:58:22.603Z,18.81
2019-01-25T07:59:23.358Z,18.84
2019-01-25T08:00:22.352Z,18.85
2019-01-25T08:01:21.953Z,18.85
2019-01-25T08:02:22.069Z,18.87
2019-01-25T08:03:23.746Z,18.9
2019-01-25T08:04:21.790Z,18.9
2019-01-25T08:05:21.685Z,18.94
2019-01-25T08:06:21.680Z,18.97
2019-01-25T08:07:22.127Z,18.97
2019-01-25T08:08:21.918Z,18.99
2019-01-25T08:09:21.922Z,18.99
2019-01-25T08:10:22.290Z,19.01
2019-01-25T08:11:21.910Z,19.01
2019-01-25T08:12:22.244Z,19.02
2019-01-25T08:13:21.727Z,19.05
2019-01-25T08:14:21.822Z,19.06
2019-01-25T08:15:22.510Z,19.06
2019-01-25T08:16:22.201Z,19.06
2019-01-25T08:17:22.567Z,19.08
2019-01-25T08:18:21.936Z,19.08
2019-01-25T08:19:21.876Z,19.09
2019-01-25T08:20:21.803Z,19.11
2019-01-25T08:21:21.696Z,19.09
2019-01-25T08:22:22.211Z,19.11
2019-01-25T08:23:21.721Z,19.11
2019-01-25T08:24:22.490Z,19.12
2019-01-25T08:25:21.712Z,19.12
2019-01-25T08:26:23.529Z,19.09
2019-01-25T08:27:21.836Z,19.13
2019-01-25T08:28:21.886Z,19.13
2019-01-25T08:29:28.820Z,19.09
2019-01-25T08:30:22.792Z,19.11
2019-01-25T08:31:23.707Z,19.09
2019-01-25T08:32:21.477Z,19.12
2019-01-25T08:33:23.759Z,19.12
2019-01-25T08:34:25.396Z,19.15
2019-01-25T08:35:22.118Z,19.15
2019-01-25T08:36:22.247Z,19.16
2019-01-25T08:37:21.493Z,19.15
2019-01-25T08:38:22.227Z,19.18
2019-01-25T08:39:22.338Z,19.18
2019-01-25T08:40:21.753Z,19.18
2019-01-25T08:41:22.282Z,19.18
2019-01-25T08:42:21.710Z,19.2
2019-01-25T08:43:21.481Z,19.19
2019-01-25T08:44:21.834Z,19.2
2019-01-25T08:45:22.250Z,19.22
2019-01-25T08:46:22.005Z,19.23
2019-01-25T08:47:21.779Z,19.2
2019-01-25T08:48:21.786Z,19.2
2019-01-25T08:49:22.238Z,19.2
2019-01-25T08:50:22.315Z,19.18
2019-01-25T08:51:22.530Z,19.2
2019-01-25T08:52:22.060Z,19.2
2019-01-25T08:53:22.234Z,19.23
2019-01-25T08:54:21.659Z,19.23
2019-01-25T08:55:21.906Z,19.25
2019-01-25T08:56:22.304Z,19.26
2019-01-25T08:57:22.428Z,19.26
2019-01-25T08:58:21.803Z,19.26
2019-01-25T08:59:22.039Z,19.25
2019-01-25T09:00:21.747Z,19.27
2019-01-25T09:01:21.984Z,19.3
2019-01-25T09:02:21.857Z,19.29
2019-01-25T09:03:23.324Z,19.32
2019-01-25T09:04:21.781Z,19.33
2019-01-25T09:05:23.474Z,19.32
2019-01-25T09:06:21.587Z,19.35
2019-01-25T09:07:21.804Z,19.33
2019-01-25T09:08:21.389Z,19.33
2019-01-25T09:09:22.097Z,19.35
2019-01-25T09:10:21.576Z,19.35
2019-01-25T09:11:22.239Z,19.35
2019-01-25T09:12:23.823Z,19.36
2019-01-25T09:13:22.174Z,19.33
2019-01-25T09:14:21.875Z,19.39
2019-01-25T09:15:23.040Z,19.37
2019-01-25T09:16:21.792Z,19.35
2019-01-25T09:17:21.578Z,19.37
2019-01-25T09:18:22.766Z,19.37
2019-01-25T09:19:21.476Z,19.39
2019-01-25T09:20:21.832Z,19.37
2019-01-25T09:21:21.452Z,19.36
2019-01-25T09:22:21.520Z,19.36
2019-01-25T09:23:21.738Z,19.37
2019-01-25T09:24:21.837Z,19.39
2019-01-25T09:25:21.399Z,19.39
2019-01-25T09:26:21.346Z,19.39
2019-01-25T09:27:21.898Z,19.37
2019-01-25T09:28:21.356Z,19.37
2019-01-25T09:29:21.818Z,19.37
2019-01-25T09:30:21.803Z,19.4
2019-01-25T09:31:21.483Z,19.42
2019-01-25T09:32:21.905Z,19.43
2019-01-25T09:33:21.985Z,19.43
2019-01-25T09:34:21.458Z,19.43
2019-01-25T09:35:21.760Z,19.46
2019-01-25T09:36:21.507Z,19.47
2019-01-25T09:37:21.840Z,19.46
2019-01-25T09:38:21.429Z,19.47
2019-01-25T09:39:22.228Z,19.49
2019-01-25T09:40:21.745Z,19.49
2019-01-25T09:41:23.204Z,19.5
2019-01-25T09:42:23.180Z,19.49
2019-01-25T09:43:21.560Z,19.47
2019-01-25T09:44:21.706Z,19.52
2019-01-25T09:45:22.529Z,19.49
2019-01-25T09:46:21.769Z,19.53
2019-01-25T09:47:21.601Z,19.53
2019-01-25T09:48:21.823Z,19.54
2019-01-25T09:49:21.561Z,19.52
2019-01-25T09:50:21.723Z,19.52
2019-01-25T09:51:21.950Z,19.47
2019-01-25T09:52:22.064Z,19.46
2019-01-25T09:53:22.206Z,19.47
2019-01-25T09:54:21.846Z,19.49
2019-01-25T09:55:25.064Z,19.47
2019-01-25T09:56:22.299Z,19.53
2019-01-25T09:57:21.822Z,19.54
2019-01-25T09:58:21.781Z,19.54
2019-01-25T09:59:21.985Z,19.53
2019-01-25T10:00:21.246Z,19.53
2019-01-25T10:01:23.379Z,19.56
2019-01-25T10:02:21.583Z,19.57
2019-01-25T10:03:21.733Z,19.54
2019-01-25T10:04:21.423Z,19.57
2019-01-25T10:05:22.238Z,19.6
2019-01-25T10:06:21.740Z,19.6
2019-01-25T10:07:21.841Z,19.61
2019-01-25T10:08:21.586Z,19.61
2019-01-25T10:09:21.433Z,19.6
2019-01-25T10:10:21.879Z,19.61
2019-01-25T10:11:21.511Z,19.63
2019-01-25T10:12:21.883Z,19.64
2019-01-25T10:13:21.467Z,19.63
2019-01-25T10:14:21.309Z,19.65
2019-01-25T10:15:24.269Z,19.65
2019-01-25T10:16:21.753Z,19.64
2019-01-25T10:17:21.799Z,19.7
2019-01-25T10:18:25.386Z,19.68
2019-01-25T10:19:21.605Z,19.65
2019-01-25T10:20:21.931Z,19.67
2019-01-25T10:21:21.878Z,19.68
2019-01-25T10:22:23.306Z,19.68
2019-01-25T10:23:21.423Z,19.71
2019-01-25T10:24:21.336Z,19.7
2019-01-25T10:25:21.391Z,19.7
2019-01-25T10:26:23.580Z,19.71
2019-01-25T10:27:21.993Z,19.67
2019-01-25T10:28:21.728Z,19.71
2019-01-25T10:29:21.579Z,19.7
2019-01-25T10:30:21.779Z,19.71
2019-01-25T10:31:21.428Z,19.74
2019-01-25T10:32:21.979Z,19.73
2019-01-25T10:33:21.940Z,19.74
2019-01-25T10:34:21.801Z,19.74
2019-01-25T10:35:21.771Z,19.77
2019-01-25T10:36:21.462Z,19.77
2019-01-25T10:37:21.858Z,19.75
2019-01-25T10:38:21.598Z,19.75
2019-01-25T10:39:22.277Z,19.75
2019-01-25T10:40:22.085Z,19.74
2019-01-25T10:41:21.899Z,19.77
2019-01-25T10:42:21.673Z,19.77
2019-01-25T10:43:21.704Z,19.78
2019-01-25T10:44:22.757Z,19.78
2019-01-25T10:45:23.419Z,19.78
2019-01-25T10:46:21.553Z,19.77
2019-01-25T10:47:21.586Z,19.8
2019-01-25T10:48:21.849Z,19.78
2019-01-25T10:49:21.451Z,19.78
2019-01-25T10:50:21.531Z,19.8
2019-01-25T10:51:21.800Z,19.82
2019-01-25T10:52:21.462Z,19.78
2019-01-25T10:53:21.587Z,19.81
2019-01-25T10:54:21.886Z,19.81
2019-01-25T10:55:21.889Z,19.84
2019-01-25T10:56:22.209Z,19.82
2019-01-25T10:57:21.484Z,19.81
2019-01-25T10:58:21.631Z,19.8
2019-01-25T10:59:21.828Z,19.81
2019-01-25T11:00:21.484Z,19.81
2019-01-25T11:01:21.848Z,19.82
2019-01-25T11:02:21.321Z,19.82
2019-01-25T11:03:21.944Z,19.82
2019-01-25T11:04:21.836Z,19.82
2019-01-25T11:05:21.495Z,19.84
2019-01-25T11:06:21.837Z,19.82
2019-01-25T11:07:21.978Z,19.81
2019-01-25T11:08:21.553Z,19.84
2019-01-25T11:09:21.749Z,19.8
2019-01-25T11:10:21.905Z,19.77
2019-01-25T11:11:21.464Z,19.77
2019-01-25T11:12:21.550Z,19.78
2019-01-25T11:13:21.732Z,19.77
2019-01-25T11:14:21.356Z,19.75
2019-01-25T11:15:22.524Z,19.77
2019-01-25T11:16:21.599Z,19.75
2019-01-25T11:17:21.442Z,19.74
2019-01-25T11:18:21.447Z,19.73
2019-01-25T11:19:21.604Z,19.74
2019-01-25T11:20:22.091Z,19.74
2019-01-25T11:21:21.973Z,19.71
2019-01-25T11:22:21.576Z,19.73
2019-01-25T11:23:21.401Z,19.74
2019-01-25T11:24:21.423Z,19.71
2019-01-25T11:25:21.573Z,19.71
2019-01-25T11:26:23.580Z,19.7
2019-01-25T11:27:22.084Z,19.7
2019-01-25T11:28:23.337Z,19.68
2019-01-25T11:29:21.248Z,19.7
2019-01-25T11:30:21.750Z,19.73
2019-01-25T11:31:21.755Z,19.71
2019-01-25T11:32:21.955Z,19.7
2019-01-25T11:33:21.777Z,19.7
2019-01-25T11:34:21.487Z,19.7
2019-01-25T11:35:21.968Z,19.71
2019-01-25T11:36:23.470Z,19.7
2019-01-25T11:37:21.851Z,19.7
2019-01-25T11:38:21.661Z,19.73
2019-01-25T11:39:21.958Z,19.71
2019-01-25T11:40:22.003Z,19.74
2019-01-25T11:41:21.499Z,19.75
2019-01-25T11:42:21.617Z,19.77
2019-01-25T11:43:21.825Z,19.75
2019-01-25T11:44:22.169Z,19.77
2019-01-25T11:45:21.510Z,19.77
2019-01-25T11:46:22.019Z,19.81
2019-01-25T11:47:21.377Z,19.78
2019-01-25T11:48:21.776Z,19.8
2019-01-25T11:49:21.321Z,19.81
2019-01-25T11:50:21.783Z,19.82
2019-01-25T11:51:21.995Z,19.82
2019-01-25T11:52:25.460Z,19.82
2019-01-25T11:53:21.335Z,19.82
2019-01-25T11:54:21.439Z,19.84
2019-01-25T11:55:21.928Z,19.86
2019-01-25T11:56:22.881Z,19.85
2019-01-25T11:57:21.399Z,19.86
2019-01-25T11:58:21.648Z,19.89
2019-01-25T11:59:21.820Z,19.92
2019-01-25T12:00:21.752Z,19.89
2019-01-25T12:01:21.965Z,19.92
2019-01-25T12:02:21.596Z,19.93
2019-01-25T12:03:22.092Z,19.93
2019-01-25T12:04:21.776Z,19.96
2019-01-25T12:05:21.823Z,19.95
2019-01-25T12:06:21.447Z,19.95
2019-01-25T12:07:22.368Z,19.95
2019-01-25T12:08:21.419Z,19.95
2019-01-25T12:09:21.554Z,19.92
2019-01-25T12:10:21.921Z,19.92
2019-01-25T12:11:22.114Z,19.93
2019-01-25T12:12:21.749Z,19.92
2019-01-25T12:13:21.669Z,19.91
2019-01-25T12:14:21.417Z,19.91
2019-01-25T12:15:21.281Z,19.91
2019-01-25T12:16:21.843Z,19.91
2019-01-25T12:17:21.372Z,19.91
2019-01-25T12:18:21.895Z,19.91
2019-01-25T12:19:22.109Z,19.91
2019-01-25T12:20:23.190Z,19.91
2019-01-25T12:21:21.553Z,19.89
2019-01-25T12:22:22.694Z,19.89
2019-01-25T12:23:21.803Z,19.89
2019-01-25T12:24:21.404Z,19.89
2019-01-25T12:25:21.844Z,19.89
2019-01-25T12:26:21.905Z,19.89
2019-01-25T12:27:21.730Z,19.89
2019-01-25T12:28:21.327Z,19.89
2019-01-25T12:29:22.540Z,19.91
2019-01-25T12:30:21.434Z,19.91
2019-01-25T12:31:21.470Z,19.92
2019-01-25T12:32:21.975Z,19.92
2019-01-25T12:33:21.799Z,19.91
2019-01-25T12:34:21.417Z,19.91
2019-01-25T12:35:21.994Z,19.91
2019-01-25T12:36:23.282Z,19.92
2019-01-25T12:37:21.835Z,19.91
2019-01-25T12:38:23.062Z,19.89
2019-01-25T12:39:23.281Z,19.92
2019-01-25T12:40:21.512Z,19.92
2019-01-25T12:41:22.106Z,19.91
2019-01-25T12:42:21.410Z,19.89
2019-01-25T12:43:24.601Z,19.89
2019-01-25T12:44:21.529Z,19.92
2019-01-25T12:45:21.565Z,19.91
2019-01-25T12:46:21.392Z,19.92
2019-01-25T12:47:21.497Z,19.89
2019-01-25T12:48:21.891Z,19.91
2019-01-25T12:49:21.346Z,19.89
2019-01-25T12:50:21.967Z,19.89
2019-01-25T12:51:21.794Z,19.88
2019-01-25T12:52:21.523Z,19.88
2019-01-25T12:53:22.040Z,19.86
2019-01-25T12:54:21.460Z,19.85
2019-01-25T12:55:21.806Z,19.91